sensor_id;sensor_type;location;lat;lon;timestamp;P1;durP1;ratioP1;P2;durP2;ratioP2
22648;SDS011;11491;41.942;24.220;2023-07-13T00:10:01;15.02;;;11.98;;
22648;SDS011;11491;41.942;24.220;2023-07-13T00:12:30;16.75;;;12.82;;
22648;SDS011;11491;41.942;24.220;2023-07-13T00:14:59;17.83;;;13.07;;
22648;SDS011;11491;41.942;24.220;2023-07-13T00:17:28;17.65;;;13.45;;
22648;SDS011;11491;41.942;24.220;2023-07-13T00:19:56;14.45;;;12.18;;
22648;SDS011;11491;41.942;24.220;2023-07-13T00:48:35;15.02;;;12.23;;
22648;SDS011;11491;41.942;24.220;2023-07-13T01:19:33;13.82;;;11.38;;
22648;SDS011;11491;41.942;24.220;2023-07-13T01:24:41;13.63;;;10.63;;
22648;SDS011;11491;41.942;24.220;2023-07-13T01:29:46;13.60;;;11.25;;
22648;SDS011;11491;41.942;24.220;2023-07-13T01:32:16;12.48;;;10.70;;
22648;SDS011;11491;41.942;24.220;2023-07-13T02:04:51;12.77;;;10.48;;
22648;SDS011;11491;41.942;24.220;2023-07-13T02:07:23;13.73;;;10.52;;
22648;SDS011;11491;41.942;24.220;2023-07-13T02:12:25;12.68;;;10.85;;
22648;SDS011;11491;41.942;24.220;2023-07-13T02:14:54;15.55;;;11.18;;
22648;SDS011;11491;41.942;24.220;2023-07-13T02:44:01;14.23;;;11.00;;
22648;SDS011;11491;41.942;24.220;2023-07-13T02:46:29;12.98;;;10.95;;
22648;SDS011;11491;41.942;24.220;2023-07-13T02:48:58;13.75;;;10.98;;
22648;SDS011;11491;41.942;24.220;2023-07-13T02:51:25;11.35;;;10.15;;
22648;SDS011;11491;41.942;24.220;2023-07-13T02:53:52;13.20;;;11.13;;
22648;SDS011;11491;41.942;24.220;2023-07-13T02:56:22;13.65;;;10.48;;
22648;SDS011;11491;41.942;24.220;2023-07-13T03:01:26;12.05;;;10.75;;
22648;SDS011;11491;41.942;24.220;2023-07-13T03:03:54;13.18;;;10.07;;
22648;SDS011;11491;41.942;24.220;2023-07-13T03:06:24;14.43;;;11.40;;
22648;SDS011;11491;41.942;24.220;2023-07-13T03:08:55;13.80;;;10.70;;
22648;SDS011;11491;41.942;24.220;2023-07-13T03:11:22;14.02;;;11.43;;
22648;SDS011;11491;41.942;24.220;2023-07-13T03:13:51;14.55;;;11.32;;
22648;SDS011;11491;41.942;24.220;2023-07-13T03:16:18;14.48;;;11.02;;
22648;SDS011;11491;41.942;24.220;2023-07-13T03:18:46;15.25;;;10.48;;
22648;SDS011;11491;41.942;24.220;2023-07-13T03:21:14;13.52;;;11.60;;
22648;SDS011;11491;41.942;24.220;2023-07-13T03:23:49;12.93;;;10.48;;
22648;SDS011;11491;41.942;24.220;2023-07-13T03:28:51;14.18;;;10.98;;
22648;SDS011;11491;41.942;24.220;2023-07-13T03:44:17;17.75;;;11.95;;
22648;SDS011;11491;41.942;24.220;2023-07-13T03:46:44;17.05;;;12.05;;
22648;SDS011;11491;41.942;24.220;2023-07-13T03:49:11;14.38;;;10.80;;
22648;SDS011;11491;41.942;24.220;2023-07-13T03:54:14;13.15;;;11.60;;
22648;SDS011;11491;41.942;24.220;2023-07-13T03:56:41;13.20;;;11.60;;
22648;SDS011;11491;41.942;24.220;2023-07-13T03:59:08;11.82;;;10.63;;
22648;SDS011;11491;41.942;24.220;2023-07-13T04:01:37;12.40;;;11.15;;
22648;SDS011;11491;41.942;24.220;2023-07-13T04:04:05;12.50;;;10.88;;
22648;SDS011;11491;41.942;24.220;2023-07-13T04:06:31;14.52;;;11.10;;
22648;SDS011;11491;41.942;24.220;2023-07-13T04:09:00;17.23;;;10.95;;
22648;SDS011;11491;41.942;24.220;2023-07-13T04:11:30;13.73;;;11.35;;
22648;SDS011;11491;41.942;24.220;2023-07-13T04:17:29;14.55;;;12.15;;
22648;SDS011;11491;41.942;24.220;2023-07-13T04:30:00;14.53;;;11.70;;
22648;SDS011;11491;41.942;24.220;2023-07-13T04:37:58;18.95;;;11.00;;
22648;SDS011;11491;41.942;24.220;2023-07-13T04:40:26;13.88;;;11.52;;
22648;SDS011;11491;41.942;24.220;2023-07-13T04:45:34;12.60;;;10.55;;
22648;SDS011;11491;41.942;24.220;2023-07-13T04:48:01;15.40;;;11.38;;
22648;SDS011;11491;41.942;24.220;2023-07-13T04:50:28;17.77;;;10.95;;
22648;SDS011;11491;41.942;24.220;2023-07-13T04:52:55;14.15;;;11.00;;
22648;SDS011;11491;41.942;24.220;2023-07-13T04:55:23;16.40;;;10.90;;
22648;SDS011;11491;41.942;24.220;2023-07-13T04:57:50;15.05;;;10.90;;
22648;SDS011;11491;41.942;24.220;2023-07-13T05:00:17;12.90;;;10.52;;
22648;SDS011;11491;41.942;24.220;2023-07-13T05:02:45;13.07;;;10.35;;
22648;SDS011;11491;41.942;24.220;2023-07-13T05:05:11;12.20;;;10.43;;
22648;SDS011;11491;41.942;24.220;2023-07-13T05:07:38;18.98;;;10.73;;
22648;SDS011;11491;41.942;24.220;2023-07-13T05:10:06;12.32;;;10.80;;
22648;SDS011;11491;41.942;24.220;2023-07-13T05:12:35;21.40;;;10.90;;
22648;SDS011;11491;41.942;24.220;2023-07-13T05:15:05;13.77;;;9.60;;
22648;SDS011;11491;41.942;24.220;2023-07-13T05:17:33;11.55;;;9.98;;
22648;SDS011;11491;41.942;24.220;2023-07-13T05:20:00;16.13;;;10.40;;
22648;SDS011;11491;41.942;24.220;2023-07-13T05:22:27;10.70;;;9.02;;
22648;SDS011;11491;41.942;24.220;2023-07-13T05:24:53;11.27;;;8.93;;
22648;SDS011;11491;41.942;24.220;2023-07-13T05:27:20;11.25;;;9.20;;
22648;SDS011;11491;41.942;24.220;2023-07-13T05:29:48;15.50;;;9.30;;
22648;SDS011;11491;41.942;24.220;2023-07-13T05:32:16;9.48;;;8.45;;
22648;SDS011;11491;41.942;24.220;2023-07-13T05:34:44;15.70;;;10.23;;
22648;SDS011;11491;41.942;24.220;2023-07-13T05:37:11;15.27;;;10.75;;
22648;SDS011;11491;41.942;24.220;2023-07-13T05:39:38;14.70;;;10.45;;
22648;SDS011;11491;41.942;24.220;2023-07-13T05:42:05;13.90;;;10.07;;
22648;SDS011;11491;41.942;24.220;2023-07-13T05:44:32;21.05;;;11.90;;
22648;SDS011;11491;41.942;24.220;2023-07-13T05:47:00;15.50;;;10.93;;
22648;SDS011;11491;41.942;24.220;2023-07-13T05:49:26;18.65;;;10.70;;
22648;SDS011;11491;41.942;24.220;2023-07-13T05:51:55;15.20;;;11.38;;
22648;SDS011;11491;41.942;24.220;2023-07-13T05:54:22;14.32;;;10.68;;
22648;SDS011;11491;41.942;24.220;2023-07-13T05:56:49;15.82;;;9.05;;
22648;SDS011;11491;41.942;24.220;2023-07-13T05:59:15;14.45;;;9.85;;
22648;SDS011;11491;41.942;24.220;2023-07-13T06:01:44;15.75;;;9.55;;
22648;SDS011;11491;41.942;24.220;2023-07-13T06:04:12;12.93;;;9.35;;
22648;SDS011;11491;41.942;24.220;2023-07-13T06:06:38;13.40;;;9.57;;
22648;SDS011;11491;41.942;24.220;2023-07-13T06:09:05;13.18;;;8.38;;
22648;SDS011;11491;41.942;24.220;2023-07-13T06:11:32;13.23;;;8.00;;
22648;SDS011;11491;41.942;24.220;2023-07-13T06:14:00;14.48;;;8.65;;
22648;SDS011;11491;41.942;24.220;2023-07-13T06:16:27;9.95;;;7.97;;
22648;SDS011;11491;41.942;24.220;2023-07-13T06:18:53;9.93;;;7.40;;
22648;SDS011;11491;41.942;24.220;2023-07-13T06:21:22;9.27;;;6.70;;
22648;SDS011;11491;41.942;24.220;2023-07-13T06:23:50;8.15;;;6.10;;
22648;SDS011;11491;41.942;24.220;2023-07-13T06:26:18;9.65;;;6.18;;
22648;SDS011;11491;41.942;24.220;2023-07-13T06:28:46;9.35;;;6.22;;
22648;SDS011;11491;41.942;24.220;2023-07-13T06:31:13;7.18;;;5.90;;
22648;SDS011;11491;41.942;24.220;2023-07-13T06:33:41;7.95;;;5.65;;
22648;SDS011;11491;41.942;24.220;2023-07-13T06:36:09;9.02;;;5.53;;
22648;SDS011;11491;41.942;24.220;2023-07-13T06:38:37;11.07;;;5.80;;
22648;SDS011;11491;41.942;24.220;2023-07-13T06:41:04;11.35;;;5.88;;
22648;SDS011;11491;41.942;24.220;2023-07-13T06:43:32;11.05;;;6.30;;
22648;SDS011;11491;41.942;24.220;2023-07-13T06:45:58;9.80;;;6.28;;
22648;SDS011;11491;41.942;24.220;2023-07-13T06:48:26;10.68;;;6.90;;
22648;SDS011;11491;41.942;24.220;2023-07-13T06:50:53;8.25;;;6.13;;
22648;SDS011;11491;41.942;24.220;2023-07-13T06:53:20;8.13;;;6.40;;
22648;SDS011;11491;41.942;24.220;2023-07-13T06:55:49;6.95;;;6.18;;
22648;SDS011;11491;41.942;24.220;2023-07-13T06:58:17;6.85;;;5.78;;
22648;SDS011;11491;41.942;24.220;2023-07-13T07:00:44;8.48;;;5.68;;
22648;SDS011;11491;41.942;24.220;2023-07-13T07:03:11;6.32;;;5.25;;
22648;SDS011;11491;41.942;24.220;2023-07-13T07:05:38;10.07;;;6.60;;
22648;SDS011;11491;41.942;24.220;2023-07-13T07:08:05;6.75;;;5.65;;
22648;SDS011;11491;41.942;24.220;2023-07-13T07:10:32;6.88;;;5.35;;
22648;SDS011;11491;41.942;24.220;2023-07-13T07:13:01;8.38;;;5.43;;
22648;SDS011;11491;41.942;24.220;2023-07-13T07:15:28;9.18;;;5.97;;
22648;SDS011;11491;41.942;24.220;2023-07-13T07:17:55;8.43;;;5.82;;
22648;SDS011;11491;41.942;24.220;2023-07-13T07:20:22;7.72;;;5.35;;
22648;SDS011;11491;41.942;24.220;2023-07-13T07:22:49;8.57;;;6.20;;
22648;SDS011;11491;41.942;24.220;2023-07-13T07:25:16;7.47;;;5.60;;
22648;SDS011;11491;41.942;24.220;2023-07-13T07:27:43;8.43;;;5.85;;
22648;SDS011;11491;41.942;24.220;2023-07-13T07:30:12;8.68;;;5.50;;
22648;SDS011;11491;41.942;24.220;2023-07-13T07:32:40;7.03;;;5.28;;
22648;SDS011;11491;41.942;24.220;2023-07-13T07:35:08;8.98;;;5.55;;
22648;SDS011;11491;41.942;24.220;2023-07-13T07:37:34;6.57;;;5.93;;
22648;SDS011;11491;41.942;24.220;2023-07-13T07:40:01;8.57;;;5.88;;
22648;SDS011;11491;41.942;24.220;2023-07-13T07:42:28;7.30;;;5.72;;
22648;SDS011;11491;41.942;24.220;2023-07-13T07:44:55;8.70;;;5.30;;
22648;SDS011;11491;41.942;24.220;2023-07-13T07:47:23;7.13;;;5.70;;
22648;SDS011;11491;41.942;24.220;2023-07-13T07:49:50;8.10;;;5.03;;
22648;SDS011;11491;41.942;24.220;2023-07-13T07:52:17;8.35;;;4.50;;
22648;SDS011;11491;41.942;24.220;2023-07-13T07:54:44;5.78;;;5.00;;
22648;SDS011;11491;41.942;24.220;2023-07-13T07:57:11;5.80;;;5.20;;
22648;SDS011;11491;41.942;24.220;2023-07-13T07:59:38;7.32;;;5.18;;
22648;SDS011;11491;41.942;24.220;2023-07-13T08:02:05;9.95;;;4.97;;
22648;SDS011;11491;41.942;24.220;2023-07-13T08:04:34;6.40;;;4.63;;
22648;SDS011;11491;41.942;24.220;2023-07-13T08:07:00;8.25;;;4.90;;
22648;SDS011;11491;41.942;24.220;2023-07-13T08:09:28;6.75;;;4.20;;
22648;SDS011;11491;41.942;24.220;2023-07-13T08:11:54;8.65;;;4.45;;
22648;SDS011;11491;41.942;24.220;2023-07-13T08:14:21;7.85;;;5.40;;
22648;SDS011;11491;41.942;24.220;2023-07-13T08:16:48;7.60;;;4.63;;
22648;SDS011;11491;41.942;24.220;2023-07-13T08:19:15;6.40;;;4.78;;
22648;SDS011;11491;41.942;24.220;2023-07-13T08:21:43;7.13;;;5.07;;
22648;SDS011;11491;41.942;24.220;2023-07-13T08:24:10;6.63;;;4.68;;
22648;SDS011;11491;41.942;24.220;2023-07-13T08:26:36;8.43;;;4.40;;
22648;SDS011;11491;41.942;24.220;2023-07-13T08:29:03;9.02;;;4.50;;
22648;SDS011;11491;41.942;24.220;2023-07-13T08:31:30;7.93;;;5.10;;
22648;SDS011;11491;41.942;24.220;2023-07-13T08:33:57;8.52;;;4.97;;
22648;SDS011;11491;41.942;24.220;2023-07-13T08:36:25;7.22;;;4.70;;
22648;SDS011;11491;41.942;24.220;2023-07-13T08:38:54;8.70;;;4.65;;
22648;SDS011;11491;41.942;24.220;2023-07-13T08:41:21;7.10;;;4.72;;
22648;SDS011;11491;41.942;24.220;2023-07-13T08:43:49;5.93;;;4.53;;
22648;SDS011;11491;41.942;24.220;2023-07-13T08:46:19;5.80;;;4.60;;
22648;SDS011;11491;41.942;24.220;2023-07-13T08:48:50;5.85;;;4.60;;
22648;SDS011;11491;41.942;24.220;2023-07-13T08:51:31;8.68;;;4.68;;
22648;SDS011;11491;41.942;24.220;2023-07-13T08:54:05;7.50;;;4.27;;
22648;SDS011;11491;41.942;24.220;2023-07-13T08:56:43;6.18;;;4.40;;
22648;SDS011;11491;41.942;24.220;2023-07-13T08:59:13;7.30;;;3.92;;
22648;SDS011;11491;41.942;24.220;2023-07-13T09:01:54;6.03;;;4.30;;
22648;SDS011;11491;41.942;24.220;2023-07-13T09:04:40;5.70;;;4.47;;
22648;SDS011;11491;41.942;24.220;2023-07-13T09:07:12;6.10;;;4.70;;
22648;SDS011;11491;41.942;24.220;2023-07-13T09:09:49;9.80;;;4.60;;
22648;SDS011;11491;41.942;24.220;2023-07-13T09:12:24;5.53;;;4.78;;
22648;SDS011;11491;41.942;24.220;2023-07-13T09:14:58;6.60;;;4.13;;
22648;SDS011;11491;41.942;24.220;2023-07-13T09:17:31;10.30;;;4.78;;
22648;SDS011;11491;41.942;24.220;2023-07-13T09:20:08;10.75;;;4.72;;
22648;SDS011;11491;41.942;24.220;2023-07-13T09:22:43;6.53;;;4.35;;
22648;SDS011;11491;41.942;24.220;2023-07-13T09:25:19;6.43;;;4.55;;
22648;SDS011;11491;41.942;24.220;2023-07-13T09:27:53;7.97;;;4.60;;
22648;SDS011;11491;41.942;24.220;2023-07-13T09:30:27;7.88;;;4.72;;
22648;SDS011;11491;41.942;24.220;2023-07-13T09:33:00;9.23;;;4.50;;
22648;SDS011;11491;41.942;24.220;2023-07-13T09:35:27;9.30;;;5.50;;
22648;SDS011;11491;41.942;24.220;2023-07-13T09:38:01;6.65;;;5.30;;
22648;SDS011;11491;41.942;24.220;2023-07-13T09:40:40;8.20;;;5.68;;
22648;SDS011;11491;41.942;24.220;2023-07-13T09:43:15;7.50;;;5.35;;
22648;SDS011;11491;41.942;24.220;2023-07-13T09:45:45;7.65;;;5.10;;
22648;SDS011;11491;41.942;24.220;2023-07-13T09:48:13;7.50;;;5.60;;
22648;SDS011;11491;41.942;24.220;2023-07-13T09:50:41;7.93;;;5.97;;
22648;SDS011;11491;41.942;24.220;2023-07-13T09:53:15;10.80;;;5.78;;
22648;SDS011;11491;41.942;24.220;2023-07-13T10:02:19;10.20;;;4.93;;
22648;SDS011;11491;41.942;24.220;2023-07-13T10:04:54;10.32;;;5.03;;
22648;SDS011;11491;41.942;24.220;2023-07-13T10:07:22;9.57;;;5.50;;
22648;SDS011;11491;41.942;24.220;2023-07-13T10:09:51;8.93;;;6.20;;
22648;SDS011;11491;41.942;24.220;2023-07-13T10:12:19;9.27;;;6.10;;
22648;SDS011;11491;41.942;24.220;2023-07-13T10:14:50;8.88;;;5.25;;
22648;SDS011;11491;41.942;24.220;2023-07-13T10:17:26;11.15;;;6.18;;
22648;SDS011;11491;41.942;24.220;2023-07-13T10:19:56;8.73;;;5.40;;
22648;SDS011;11491;41.942;24.220;2023-07-13T10:22:32;8.95;;;5.63;;
22648;SDS011;11491;41.942;24.220;2023-07-13T10:25:12;10.48;;;5.07;;
22648;SDS011;11491;41.942;24.220;2023-07-13T10:27:42;15.25;;;5.90;;
22648;SDS011;11491;41.942;24.220;2023-07-13T10:30:11;8.57;;;5.20;;
22648;SDS011;11491;41.942;24.220;2023-07-13T10:32:41;9.02;;;4.93;;
22648;SDS011;11491;41.942;24.220;2023-07-13T10:35:09;11.70;;;5.40;;
22648;SDS011;11491;41.942;24.220;2023-07-13T10:37:39;11.20;;;5.03;;
22648;SDS011;11491;41.942;24.220;2023-07-13T10:40:14;12.95;;;5.70;;
22648;SDS011;11491;41.942;24.220;2023-07-13T10:42:46;9.60;;;5.07;;
22648;SDS011;11491;41.942;24.220;2023-07-13T10:45:17;16.38;;;5.53;;
22648;SDS011;11491;41.942;24.220;2023-07-13T10:47:46;11.70;;;5.60;;
22648;SDS011;11491;41.942;24.220;2023-07-13T10:50:17;10.40;;;5.45;;
22648;SDS011;11491;41.942;24.220;2023-07-13T10:52:48;14.93;;;5.10;;
22648;SDS011;11491;41.942;24.220;2023-07-13T10:55:35;13.75;;;5.03;;
22648;SDS011;11491;41.942;24.220;2023-07-13T10:58:15;16.90;;;5.20;;
22648;SDS011;11491;41.942;24.220;2023-07-13T11:00:48;17.65;;;4.95;;
22648;SDS011;11491;41.942;24.220;2023-07-13T11:03:20;16.15;;;5.00;;
22648;SDS011;11491;41.942;24.220;2023-07-13T11:05:49;15.00;;;5.60;;
22648;SDS011;11491;41.942;24.220;2023-07-13T11:08:19;18.23;;;10.10;;
22648;SDS011;11491;41.942;24.220;2023-07-13T11:10:58;18.48;;;8.10;;
22648;SDS011;11491;41.942;24.220;2023-07-13T11:13:39;13.02;;;6.20;;
22648;SDS011;11491;41.942;24.220;2023-07-13T11:16:34;13.93;;;6.50;;
22648;SDS011;11491;41.942;24.220;2023-07-13T11:24:50;9.98;;;5.72;;
22648;SDS011;11491;41.942;24.220;2023-07-13T11:27:22;11.88;;;5.70;;
22648;SDS011;11491;41.942;24.220;2023-07-13T11:30:06;10.60;;;6.38;;
22648;SDS011;11491;41.942;24.220;2023-07-13T11:32:51;12.63;;;6.82;;
22648;SDS011;11491;41.942;24.220;2023-07-13T11:35:32;12.13;;;5.82;;
22648;SDS011;11491;41.942;24.220;2023-07-13T11:38:03;8.32;;;5.63;;
22648;SDS011;11491;41.942;24.220;2023-07-13T11:40:39;8.15;;;5.72;;
22648;SDS011;11491;41.942;24.220;2023-07-13T11:43:11;11.43;;;5.65;;
22648;SDS011;11491;41.942;24.220;2023-07-13T11:45:39;9.45;;;5.82;;
22648;SDS011;11491;41.942;24.220;2023-07-13T11:48:17;15.68;;;5.50;;
22648;SDS011;11491;41.942;24.220;2023-07-13T11:50:49;10.10;;;5.90;;
22648;SDS011;11491;41.942;24.220;2023-07-13T11:53:22;11.30;;;5.57;;
22648;SDS011;11491;41.942;24.220;2023-07-13T11:55:52;9.55;;;5.88;;
22648;SDS011;11491;41.942;24.220;2023-07-13T11:58:21;10.35;;;6.20;;
22648;SDS011;11491;41.942;24.220;2023-07-13T12:00:50;9.25;;;6.05;;
22648;SDS011;11491;41.942;24.220;2023-07-13T12:03:21;11.25;;;5.55;;
22648;SDS011;11491;41.942;24.220;2023-07-13T12:05:56;6.88;;;5.30;;
22648;SDS011;11491;41.942;24.220;2023-07-13T12:08:25;12.52;;;5.22;;
22648;SDS011;11491;41.942;24.220;2023-07-13T12:11:03;10.43;;;5.75;;
22648;SDS011;11491;41.942;24.220;2023-07-13T12:13:35;13.50;;;6.40;;
22648;SDS011;11491;41.942;24.220;2023-07-13T12:16:14;14.20;;;6.32;;
22648;SDS011;11491;41.942;24.220;2023-07-13T12:18:45;8.00;;;6.20;;
22648;SDS011;11491;41.942;24.220;2023-07-13T12:21:14;14.13;;;6.25;;
22648;SDS011;11491;41.942;24.220;2023-07-13T12:23:44;12.75;;;6.00;;
22648;SDS011;11491;41.942;24.220;2023-07-13T12:26:15;10.60;;;9.20;;
22648;SDS011;11491;41.942;24.220;2023-07-13T12:28:45;15.65;;;5.75;;
22648;SDS011;11491;41.942;24.220;2023-07-13T12:31:22;12.85;;;6.45;;
22648;SDS011;11491;41.942;24.220;2023-07-13T12:34:00;8.93;;;5.50;;
22648;SDS011;11491;41.942;24.220;2023-07-13T12:36:37;11.18;;;5.78;;
22648;SDS011;11491;41.942;24.220;2023-07-13T12:39:14;8.65;;;5.57;;
22648;SDS011;11491;41.942;24.220;2023-07-13T12:41:43;9.48;;;6.03;;
22648;SDS011;11491;41.942;24.220;2023-07-13T12:44:11;12.90;;;5.85;;
22648;SDS011;11491;41.942;24.220;2023-07-13T12:46:50;10.77;;;6.05;;
22648;SDS011;11491;41.942;24.220;2023-07-13T12:49:23;11.75;;;5.63;;
22648;SDS011;11491;41.942;24.220;2023-07-13T12:51:55;12.40;;;5.95;;
22648;SDS011;11491;41.942;24.220;2023-07-13T12:56:51;14.85;;;5.95;;
22648;SDS011;11491;41.942;24.220;2023-07-13T12:59:22;13.23;;;6.05;;
22648;SDS011;11491;41.942;24.220;2023-07-13T13:01:51;11.82;;;6.25;;
22648;SDS011;11491;41.942;24.220;2023-07-13T13:04:19;13.18;;;6.13;;
22648;SDS011;11491;41.942;24.220;2023-07-13T13:06:48;16.00;;;6.15;;
22648;SDS011;11491;41.942;24.220;2023-07-13T13:09:16;10.57;;;5.85;;
22648;SDS011;11491;41.942;24.220;2023-07-13T13:11:45;9.15;;;5.93;;
22648;SDS011;11491;41.942;24.220;2023-07-13T13:14:12;10.40;;;6.43;;
22648;SDS011;11491;41.942;24.220;2023-07-13T13:16:43;14.05;;;6.20;;
22648;SDS011;11491;41.942;24.220;2023-07-13T13:19:16;9.77;;;6.00;;
22648;SDS011;11491;41.942;24.220;2023-07-13T13:21:45;10.98;;;6.50;;
22648;SDS011;11491;41.942;24.220;2023-07-13T13:24:16;9.70;;;6.05;;
22648;SDS011;11491;41.942;24.220;2023-07-13T13:26:45;11.95;;;6.00;;
22648;SDS011;11491;41.942;24.220;2023-07-13T13:29:13;10.60;;;5.93;;
22648;SDS011;11491;41.942;24.220;2023-07-13T13:31:41;14.30;;;6.00;;
22648;SDS011;11491;41.942;24.220;2023-07-13T13:34:09;14.02;;;5.60;;
22648;SDS011;11491;41.942;24.220;2023-07-13T13:36:39;12.23;;;6.00;;
22648;SDS011;11491;41.942;24.220;2023-07-13T13:39:15;10.30;;;6.30;;
22648;SDS011;11491;41.942;24.220;2023-07-13T13:41:46;12.82;;;5.80;;
22648;SDS011;11491;41.942;24.220;2023-07-13T13:44:13;11.23;;;5.93;;
22648;SDS011;11491;41.942;24.220;2023-07-13T13:46:41;10.77;;;5.78;;
22648;SDS011;11491;41.942;24.220;2023-07-13T13:49:11;11.15;;;6.25;;
22648;SDS011;11491;41.942;24.220;2023-07-13T13:51:41;10.55;;;5.65;;
22648;SDS011;11491;41.942;24.220;2023-07-13T13:54:11;10.82;;;5.45;;
22648;SDS011;11491;41.942;24.220;2023-07-13T13:56:41;12.05;;;5.90;;
22648;SDS011;11491;41.942;24.220;2023-07-13T13:59:08;10.80;;;5.60;;
22648;SDS011;11491;41.942;24.220;2023-07-13T14:01:35;11.52;;;5.35;;
22648;SDS011;11491;41.942;24.220;2023-07-13T14:04:02;14.10;;;5.57;;
22648;SDS011;11491;41.942;24.220;2023-07-13T14:06:30;18.10;;;6.32;;
22648;SDS011;11491;41.942;24.220;2023-07-13T14:08:57;11.43;;;5.63;;
22648;SDS011;11491;41.942;24.220;2023-07-13T14:11:26;14.13;;;5.40;;
22648;SDS011;11491;41.942;24.220;2023-07-13T14:13:54;13.38;;;6.00;;
22648;SDS011;11491;41.942;24.220;2023-07-13T14:16:25;12.07;;;5.57;;
22648;SDS011;11491;41.942;24.220;2023-07-13T14:18:54;12.82;;;5.20;;
22648;SDS011;11491;41.942;24.220;2023-07-13T14:21:25;13.60;;;5.18;;
22648;SDS011;11491;41.942;24.220;2023-07-13T14:23:53;13.43;;;5.55;;
22648;SDS011;11491;41.942;24.220;2023-07-13T14:26:21;14.82;;;5.82;;
22648;SDS011;11491;41.942;24.220;2023-07-13T14:28:51;16.38;;;6.38;;
22648;SDS011;11491;41.942;24.220;2023-07-13T14:31:21;11.63;;;5.60;;
22648;SDS011;11491;41.942;24.220;2023-07-13T14:33:49;14.45;;;5.45;;
22648;SDS011;11491;41.942;24.220;2023-07-13T14:36:21;11.48;;;5.15;;
22648;SDS011;11491;41.942;24.220;2023-07-13T14:38:52;15.13;;;5.50;;
22648;SDS011;11491;41.942;24.220;2023-07-13T14:41:19;14.30;;;5.20;;
22648;SDS011;11491;41.942;24.220;2023-07-13T14:43:46;16.35;;;5.65;;
22648;SDS011;11491;41.942;24.220;2023-07-13T14:46:18;19.75;;;5.97;;
22648;SDS011;11491;41.942;24.220;2023-07-13T14:48:52;14.68;;;5.15;;
22648;SDS011;11491;41.942;24.220;2023-07-13T14:51:24;9.50;;;4.93;;
22648;SDS011;11491;41.942;24.220;2023-07-13T14:53:51;15.43;;;5.93;;
22648;SDS011;11491;41.942;24.220;2023-07-13T14:56:18;13.40;;;5.75;;
22648;SDS011;11491;41.942;24.220;2023-07-13T14:58:44;9.60;;;5.70;;
22648;SDS011;11491;41.942;24.220;2023-07-13T15:01:12;17.00;;;6.05;;
22648;SDS011;11491;41.942;24.220;2023-07-13T15:03:43;14.98;;;6.40;;
22648;SDS011;11491;41.942;24.220;2023-07-13T15:06:11;17.88;;;5.65;;
22648;SDS011;11491;41.942;24.220;2023-07-13T15:08:39;16.67;;;6.32;;
22648;SDS011;11491;41.942;24.220;2023-07-13T15:11:07;15.52;;;5.78;;
22648;SDS011;11491;41.942;24.220;2023-07-13T15:13:37;13.52;;;6.20;;
22648;SDS011;11491;41.942;24.220;2023-07-13T15:16:04;17.60;;;6.20;;
22648;SDS011;11491;41.942;24.220;2023-07-13T15:18:39;18.15;;;6.55;;
22648;SDS011;11491;41.942;24.220;2023-07-13T15:21:09;14.63;;;6.85;;
22648;SDS011;11491;41.942;24.220;2023-07-13T15:23:39;12.38;;;6.03;;
22648;SDS011;11491;41.942;24.220;2023-07-13T15:26:07;15.27;;;7.72;;
22648;SDS011;11491;41.942;24.220;2023-07-13T15:28:37;21.25;;;6.03;;
22648;SDS011;11491;41.942;24.220;2023-07-13T15:31:05;15.80;;;5.75;;
22648;SDS011;11491;41.942;24.220;2023-07-13T15:33:46;15.57;;;5.72;;
22648;SDS011;11491;41.942;24.220;2023-07-13T15:38:45;17.55;;;7.38;;
22648;SDS011;11491;41.942;24.220;2023-07-13T15:41:22;16.33;;;6.13;;
22648;SDS011;11491;41.942;24.220;2023-07-13T15:43:51;17.67;;;6.45;;
22648;SDS011;11491;41.942;24.220;2023-07-13T15:46:19;12.68;;;5.60;;
22648;SDS011;11491;41.942;24.220;2023-07-13T15:48:48;18.42;;;6.70;;
22648;SDS011;11491;41.942;24.220;2023-07-13T15:51:20;12.45;;;6.25;;
22648;SDS011;11491;41.942;24.220;2023-07-13T15:53:49;14.98;;;6.80;;
22648;SDS011;11491;41.942;24.220;2023-07-13T15:56:22;20.95;;;8.95;;
22648;SDS011;11491;41.942;24.220;2023-07-13T15:58:50;14.07;;;5.80;;
22648;SDS011;11491;41.942;24.220;2023-07-13T16:01:18;12.35;;;5.93;;
22648;SDS011;11491;41.942;24.220;2023-07-13T16:03:45;15.25;;;5.95;;
22648;SDS011;11491;41.942;24.220;2023-07-13T16:06:13;15.30;;;6.18;;
22648;SDS011;11491;41.942;24.220;2023-07-13T16:08:42;18.35;;;6.32;;
22648;SDS011;11491;41.942;24.220;2023-07-13T16:11:15;21.88;;;6.22;;
22648;SDS011;11491;41.942;24.220;2023-07-13T16:13:45;16.30;;;6.68;;
22648;SDS011;11491;41.942;24.220;2023-07-13T16:16:13;16.15;;;5.90;;
22648;SDS011;11491;41.942;24.220;2023-07-13T16:18:41;14.98;;;7.05;;
22648;SDS011;11491;41.942;24.220;2023-07-13T16:21:09;15.20;;;5.75;;
22648;SDS011;11491;41.942;24.220;2023-07-13T16:23:37;19.15;;;7.70;;
22648;SDS011;11491;41.942;24.220;2023-07-13T16:26:12;15.82;;;6.82;;
22648;SDS011;11491;41.942;24.220;2023-07-13T16:28:50;18.98;;;6.50;;
22648;SDS011;11491;41.942;24.220;2023-07-13T16:31:25;14.73;;;5.88;;
22648;SDS011;11491;41.942;24.220;2023-07-13T16:33:57;14.10;;;5.97;;
22648;SDS011;11491;41.942;24.220;2023-07-13T16:36:25;15.90;;;6.43;;
22648;SDS011;11491;41.942;24.220;2023-07-13T16:38:53;18.10;;;6.47;;
22648;SDS011;11491;41.942;24.220;2023-07-13T16:41:21;16.40;;;7.10;;
22648;SDS011;11491;41.942;24.220;2023-07-13T16:43:48;14.90;;;6.75;;
22648;SDS011;11491;41.942;24.220;2023-07-13T16:46:17;18.73;;;7.13;;
22648;SDS011;11491;41.942;24.220;2023-07-13T16:48:47;14.35;;;6.72;;
22648;SDS011;11491;41.942;24.220;2023-07-13T16:51:16;12.88;;;6.35;;
22648;SDS011;11491;41.942;24.220;2023-07-13T16:53:43;17.42;;;6.65;;
22648;SDS011;11491;41.942;24.220;2023-07-13T16:56:15;14.05;;;6.50;;
22648;SDS011;11491;41.942;24.220;2023-07-13T16:58:45;16.80;;;7.25;;
22648;SDS011;11491;41.942;24.220;2023-07-13T17:01:12;16.63;;;8.20;;
22648;SDS011;11491;41.942;24.220;2023-07-13T17:03:40;17.42;;;7.13;;
22648;SDS011;11491;41.942;24.220;2023-07-13T17:06:20;13.15;;;6.35;;
22648;SDS011;11491;41.942;24.220;2023-07-13T17:08:52;14.48;;;6.70;;
22648;SDS011;11491;41.942;24.220;2023-07-13T17:11:21;17.80;;;7.18;;
22648;SDS011;11491;41.942;24.220;2023-07-13T17:13:52;18.00;;;7.32;;
22648;SDS011;11491;41.942;24.220;2023-07-13T17:16:20;16.38;;;8.00;;
22648;SDS011;11491;41.942;24.220;2023-07-13T17:18:49;15.18;;;7.78;;
22648;SDS011;11491;41.942;24.220;2023-07-13T17:21:16;20.30;;;6.88;;
22648;SDS011;11491;41.942;24.220;2023-07-13T17:23:44;14.50;;;6.57;;
22648;SDS011;11491;41.942;24.220;2023-07-13T17:26:12;15.82;;;6.82;;
22648;SDS011;11491;41.942;24.220;2023-07-13T17:28:39;18.25;;;6.82;;
22648;SDS011;11491;41.942;24.220;2023-07-13T17:31:10;18.02;;;7.82;;
22648;SDS011;11491;41.942;24.220;2023-07-13T17:33:43;15.50;;;7.47;;
22648;SDS011;11491;41.942;24.220;2023-07-13T17:36:12;14.18;;;7.00;;
22648;SDS011;11491;41.942;24.220;2023-07-13T17:38:42;13.15;;;7.55;;
22648;SDS011;11491;41.942;24.220;2023-07-13T17:41:13;18.40;;;7.35;;
22648;SDS011;11491;41.942;24.220;2023-07-13T17:43:40;14.93;;;7.90;;
22648;SDS011;11491;41.942;24.220;2023-07-13T17:46:12;16.95;;;7.72;;